Nearby METAR Reports

 

EGTE - Exeter Airport, United Kingdom
Distance from station: NNE 25km
Updated: 21/05/2018 11:50
Clear
Clear
 Wind from NE
Wind: NE 7 mph , 11 km/h
Temperature: 19°C
Dew Point: 9°C
Humidity: 52%
Barometer: 1016 hPa
Summary: Clear
Visibility: greater than 7 miles , 10 km
2018/05/21 10:50 EGTE 211050Z 04006KT 360V080 CAVOK 19/09 Q1016
EGDY - Yeovilton (navy), United Kingdom
Distance from station: NE 83km
Updated: 21/05/2018 11:50
Clear
Clear
 Wind from NNE
Wind: NNE 6 mph , 9 km/h
Temperature: 19°C
Dew Point: 16°C
Humidity: 83%
Barometer: 1016 hPa
Summary: Clear
Visibility: greater than 7 miles , 10 km
2018/05/21 10:50 EGDY 211050Z 03005KT CAVOK 19/16 Q1016 BLU NOSIG
 
EGFF - Cardiff-Wales Ar, United Kingdom
Distance from station: N 99km
Updated: 21/05/2018 11:50
Clear
Clear
 Wind from SE
Wind: SE 6 mph , 9 km/h
Temperature: 18°C
Dew Point: 11°C
Humidity: 64%
Barometer: 1017 hPa
Clouds: Clear
Visibility: 6 miles , 10 km
2018/05/21 10:50 EGFF 211050Z AUTO 13005KT 110V170 9999 NCD 18/11 Q1017
EGDX - St Athan Raf, United Kingdom
Distance from station: N 100km
Updated: 21/05/2018 11:50
Clear
Clear
 Wind from SSE
Wind: SSE 5 mph , 7 km/h
Temperature: 17°C
Dew Point: 11°C
Humidity: 68%
Barometer: 1016 hPa
Summary: Clear
Visibility: greater than 7 miles , 10 km
2018/05/21 10:50 EGDX 211050Z 15004KT CAVOK 17/11 Q1016 BLU
 
EGHQ - Newquay, United Kingdom
Distance from station: W 106km
Updated: 21/05/2018 11:50
Partly cloudy
Partly cloudy
 Wind from ENE
Wind: ENE 6 mph , 9 km/h
Temperature: 18°C
Dew Point: 9°C
Humidity: 56%
Barometer: 1016 hPa
Clouds: Partly cloudy
Visibility: 6 miles , 9 km
2018/05/21 10:50 EGHQ 211050Z 06005KT 010V160 9000 NSC 18/09 Q1016
EGGD - Bristol/Lulsgate, United Kingdom
Distance from station: NNE 111km
Updated: 21/05/2018 11:50
Clear
Clear
 Wind from NE
Wind: NE 7 mph , 11 km/h
Temperature: 19°C
Dew Point: 8°C
Humidity: 49%
Barometer: 1017 hPa
Clouds: Clear
Visibility: 6 miles , 10 km
2018/05/21 10:50 EGGD 211050Z AUTO 05006KT 360V090 9999 NCD 19/08 Q1017
 
EGHH - Bournemouth Airp, United Kingdom
Distance from station: ENE 122km
Updated: 21/05/2018 11:50
Clear
Clear
 Wind from NE
Wind: NE 8 mph , 13 km/h
Temperature: 22°C
Dew Point: 11°C
Humidity: 50%
Barometer: 1015 hPa
Summary: Clear
Visibility: greater than 7 miles , 10 km
2018/05/21 10:50 EGHH 211050Z 05007KT 030V100 CAVOK 22/11 Q1015
EGJA - Alderney/Channel, United Kingdom
Distance from station: SE 127km
Updated: 21/05/2018 11:50
Partly cloudy
Partly cloudy
 Wind from NNE
Wind: NNE 17 mph , 28 km/h
Clouds: Partly cloudy
Visibility: 5 miles , 8 km
2018/05/21 10:50 EGJA 211050Z 03015KT 8000 NSC 14/// Q1015
 
EGDR - Culdrose (navy), United Kingdom
Distance from station: WSW 133km
Updated: 21/05/2018 11:50
Haze, Partly cloudy
Haze, Partly cloudy
 Wind from E
Wind: E 13 mph , 20 km/h
Temperature: 16°C
Dew Point: 10°C
Humidity: 68%
Barometer: 1016 hPa
Summary: Haze
Clouds: Partly cloudy
Visibility: 5 miles , 8 km
Cloud details: Partly cloudy 7620 m
Partly cloudy 9144 m
2018/05/21 10:50 EGDR 211050Z 08011KT 8000 HZ SCT250 SCT300 16/10 Q1016 BLU NOSIG
EGUO - Colerne Raf, United Kingdom
Distance from station: NE 134km
Updated: 21/03/2018 08:50
NOT Current
Clear
Clear
 Wind from W
Wind: W 6 mph , 9 km/h
Temperature: 5°C
Wind Chill: 3°C
Dew Point: 1°C
Humidity: 76%
Barometer: 1032 hPa
Clouds: Clear
Visibility: 6 miles , 10 km
2018/03/21 08:50 EGUO 210850Z 27005KT 9999 NCD 05/01 Q1032 BLU NOSIG
 
EGJB - Guernsey Airport, United Kingdom
Distance from station: SSE 137km
Updated: 21/05/2018 11:50
Clear
Clear
 Wind from NNE
Wind: NNE 9 mph , 15 km/h
Temperature: 15°C
Dew Point: 11°C
Humidity: 77%
Barometer: 1014 hPa
Summary: Clear
Visibility: greater than 7 miles , 10 km
2018/05/21 10:50 EGJB 211050Z 03008KT 360V070 CAVOK 15/11 Q1014
EGDM - Boscombe Down, United Kingdom
Distance from station: ENE 144km
Updated: 21/05/2018 11:50
Clear
Clear
 Wind from ENE
Wind: ENE 7 mph , 11 km/h
Temperature: 20°C
Dew Point: 10°C
Humidity: 53%
Barometer: 1016 hPa
Summary: Clear
Visibility: greater than 7 miles , 10 km
2018/05/21 10:50 EGDM 211050Z 07006KT CAVOK 20/10 Q1016 BLU NOSIG
 
EGOP - Pembry Sands, United Kingdom
Distance from station: NNW 147km
Updated: 21/05/2018 11:50
Clear
Clear
 Wind from SW
Wind: SW 8 mph , 13 km/h
Temperature: 16°C
Dew Point: 12°C
Humidity: 77%
Barometer: 1017 hPa
Summary: Clear
Visibility: greater than 7 miles , 10 km
2018/05/21 10:50 EGOP 211050Z 22007KT CAVOK 16/12 Q1017 BLU
EGVP - Middle Wallop, United Kingdom
Distance from station: ENE 153km
Updated: 21/05/2018 11:50
Clear
Clear
 Wind from ENE
Wind: ENE 6 mph , 9 km/h
Temperature: 20°C
Dew Point: 9°C
Humidity: 49%
Barometer: 1016 hPa
Summary: Clear
Visibility: greater than 7 miles , 10 km
2018/05/21 10:50 EGVP 211050Z 07005KT CAVOK 20/09 Q1016 BLU NOSIG
 
EGHI - Southampton Wx C, United Kingdom
Distance from station: ENE 159km
Updated: 21/05/2018 11:50
Few Clouds
Few Clouds
 Wind from ENE
Wind: ENE 6 mph , 9 km/h
Temperature: 19°C
Dew Point: 10°C
Humidity: 56%
Barometer: 1015 hPa
Clouds: Few Clouds
Visibility: 6 miles , 10 km
Cloud details: Few Clouds 853 m
2018/05/21 10:50 EGHI 211050Z 07005KT 360V130 9999 FEW028 19/10 Q1015